sensor_id;sensor_type;location;lat;lon;timestamp;P1;durP1;ratioP1;P2;durP2;ratioP2
11488;SDS011;5801;50.804;12.638;2024-01-10T00:01:45;15.93;;;7.82;;
11488;SDS011;5801;50.804;12.638;2024-01-10T00:04:11;16.23;;;8.35;;
11488;SDS011;5801;50.804;12.638;2024-01-10T00:06:37;16.92;;;6.88;;
11488;SDS011;5801;50.804;12.638;2024-01-10T00:09:03;12.13;;;6.13;;
11488;SDS011;5801;50.804;12.638;2024-01-10T00:11:29;14.90;;;7.03;;
11488;SDS011;5801;50.804;12.638;2024-01-10T00:13:55;16.92;;;7.15;;
11488;SDS011;5801;50.804;12.638;2024-01-10T00:16:24;8.63;;;5.40;;
11488;SDS011;5801;50.804;12.638;2024-01-10T00:18:51;4.82;;;4.43;;
11488;SDS011;5801;50.804;12.638;2024-01-10T00:21:17;15.15;;;8.35;;
11488;SDS011;5801;50.804;12.638;2024-01-10T00:23:43;8.65;;;7.10;;
11488;SDS011;5801;50.804;12.638;2024-01-10T00:26:09;18.75;;;7.13;;
11488;SDS011;5801;50.804;12.638;2024-01-10T00:28:35;14.93;;;6.30;;
11488;SDS011;5801;50.804;12.638;2024-01-10T00:31:01;8.63;;;6.80;;
11488;SDS011;5801;50.804;12.638;2024-01-10T00:33:27;16.15;;;6.63;;
11488;SDS011;5801;50.804;12.638;2024-01-10T00:35:54;14.85;;;9.85;;
11488;SDS011;5801;50.804;12.638;2024-01-10T00:38:20;16.85;;;8.43;;
11488;SDS011;5801;50.804;12.638;2024-01-10T00:40:46;6.57;;;4.70;;
11488;SDS011;5801;50.804;12.638;2024-01-10T00:43:12;8.23;;;6.53;;
11488;SDS011;5801;50.804;12.638;2024-01-10T00:45:38;6.32;;;5.60;;
11488;SDS011;5801;50.804;12.638;2024-01-10T00:48:04;6.40;;;4.63;;
11488;SDS011;5801;50.804;12.638;2024-01-10T00:50:30;19.35;;;5.32;;
11488;SDS011;5801;50.804;12.638;2024-01-10T00:52:56;7.07;;;4.78;;
11488;SDS011;5801;50.804;12.638;2024-01-10T00:55:22;7.38;;;5.38;;
11488;SDS011;5801;50.804;12.638;2024-01-10T00:57:48;8.13;;;7.32;;
11488;SDS011;5801;50.804;12.638;2024-01-10T01:00:14;7.50;;;5.82;;
11488;SDS011;5801;50.804;12.638;2024-01-10T01:02:41;14.48;;;5.25;;
11488;SDS011;5801;50.804;12.638;2024-01-10T01:05:07;13.05;;;7.07;;
11488;SDS011;5801;50.804;12.638;2024-01-10T01:07:33;13.60;;;4.35;;
11488;SDS011;5801;50.804;12.638;2024-01-10T01:09:59;8.52;;;6.22;;
11488;SDS011;5801;50.804;12.638;2024-01-10T01:12:25;10.07;;;6.78;;
11488;SDS011;5801;50.804;12.638;2024-01-10T01:14:51;9.82;;;5.70;;
11488;SDS011;5801;50.804;12.638;2024-01-10T01:17:17;8.52;;;5.40;;
11488;SDS011;5801;50.804;12.638;2024-01-10T01:19:43;15.60;;;6.05;;
11488;SDS011;5801;50.804;12.638;2024-01-10T01:22:10;10.50;;;5.70;;
11488;SDS011;5801;50.804;12.638;2024-01-10T01:24:36;8.85;;;6.20;;
11488;SDS011;5801;50.804;12.638;2024-01-10T01:27:02;5.70;;;4.95;;
11488;SDS011;5801;50.804;12.638;2024-01-10T01:29:28;6.25;;;5.43;;
11488;SDS011;5801;50.804;12.638;2024-01-10T01:31:54;13.38;;;7.85;;
11488;SDS011;5801;50.804;12.638;2024-01-10T01:34:21;14.00;;;7.93;;
11488;SDS011;5801;50.804;12.638;2024-01-10T01:36:47;12.82;;;6.85;;
11488;SDS011;5801;50.804;12.638;2024-01-10T01:39:14;5.20;;;4.65;;
11488;SDS011;5801;50.804;12.638;2024-01-10T01:41:40;10.15;;;6.25;;
11488;SDS011;5801;50.804;12.638;2024-01-10T01:44:06;7.15;;;5.07;;
11488;SDS011;5801;50.804;12.638;2024-01-10T01:46:32;6.28;;;5.57;;
11488;SDS011;5801;50.804;12.638;2024-01-10T01:48:58;8.90;;;6.32;;
11488;SDS011;5801;50.804;12.638;2024-01-10T01:51:24;8.63;;;6.20;;
11488;SDS011;5801;50.804;12.638;2024-01-10T01:53:52;19.98;;;6.88;;
11488;SDS011;5801;50.804;12.638;2024-01-10T01:56:18;13.05;;;7.13;;
11488;SDS011;5801;50.804;12.638;2024-01-10T01:58:44;6.55;;;5.90;;
11488;SDS011;5801;50.804;12.638;2024-01-10T02:01:12;18.67;;;7.60;;
11488;SDS011;5801;50.804;12.638;2024-01-10T02:03:38;9.75;;;5.97;;
11488;SDS011;5801;50.804;12.638;2024-01-10T02:06:04;12.35;;;6.82;;
11488;SDS011;5801;50.804;12.638;2024-01-10T02:08:32;10.52;;;5.65;;
11488;SDS011;5801;50.804;12.638;2024-01-10T02:10:59;10.27;;;6.60;;
11488;SDS011;5801;50.804;12.638;2024-01-10T02:13:25;3.95;;;3.60;;
11488;SDS011;5801;50.804;12.638;2024-01-10T02:15:52;6.57;;;6.00;;
11488;SDS011;5801;50.804;12.638;2024-01-10T02:18:19;12.38;;;6.40;;
11488;SDS011;5801;50.804;12.638;2024-01-10T02:20:45;9.60;;;7.57;;
11488;SDS011;5801;50.804;12.638;2024-01-10T02:23:11;12.25;;;6.25;;
11488;SDS011;5801;50.804;12.638;2024-01-10T02:25:40;21.38;;;6.95;;
11488;SDS011;5801;50.804;12.638;2024-01-10T02:28:07;6.57;;;4.65;;
11488;SDS011;5801;50.804;12.638;2024-01-10T02:30:34;7.55;;;3.95;;
11488;SDS011;5801;50.804;12.638;2024-01-10T02:33:00;9.38;;;7.15;;
11488;SDS011;5801;50.804;12.638;2024-01-10T02:35:26;11.65;;;5.60;;
11488;SDS011;5801;50.804;12.638;2024-01-10T02:37:53;8.98;;;5.97;;
11488;SDS011;5801;50.804;12.638;2024-01-10T02:40:19;6.95;;;6.05;;
11488;SDS011;5801;50.804;12.638;2024-01-10T02:42:45;12.25;;;8.48;;
11488;SDS011;5801;50.804;12.638;2024-01-10T02:45:12;17.00;;;7.75;;
11488;SDS011;5801;50.804;12.638;2024-01-10T02:47:38;14.75;;;8.90;;
11488;SDS011;5801;50.804;12.638;2024-01-10T02:50:04;10.65;;;7.38;;
11488;SDS011;5801;50.804;12.638;2024-01-10T02:52:31;15.77;;;5.50;;
11488;SDS011;5801;50.804;12.638;2024-01-10T02:54:57;12.65;;;7.22;;
11488;SDS011;5801;50.804;12.638;2024-01-10T02:57:23;21.02;;;9.07;;
11488;SDS011;5801;50.804;12.638;2024-01-10T02:59:49;5.28;;;3.85;;
11488;SDS011;5801;50.804;12.638;2024-01-10T03:02:15;10.70;;;7.45;;
11488;SDS011;5801;50.804;12.638;2024-01-10T03:04:42;18.85;;;5.30;;
11488;SDS011;5801;50.804;12.638;2024-01-10T03:07:09;20.70;;;7.85;;
11488;SDS011;5801;50.804;12.638;2024-01-10T03:09:35;14.38;;;5.63;;
11488;SDS011;5801;50.804;12.638;2024-01-10T03:12:01;8.93;;;6.28;;
11488;SDS011;5801;50.804;12.638;2024-01-10T03:14:27;20.20;;;8.20;;
11488;SDS011;5801;50.804;12.638;2024-01-10T03:16:53;7.82;;;5.95;;
11488;SDS011;5801;50.804;12.638;2024-01-10T03:19:19;6.25;;;4.28;;
11488;SDS011;5801;50.804;12.638;2024-01-10T03:21:45;6.55;;;5.53;;
11488;SDS011;5801;50.804;12.638;2024-01-10T03:24:11;13.10;;;9.57;;
11488;SDS011;5801;50.804;12.638;2024-01-10T03:26:37;7.53;;;5.30;;
11488;SDS011;5801;50.804;12.638;2024-01-10T03:29:03;5.57;;;5.07;;
11488;SDS011;5801;50.804;12.638;2024-01-10T03:31:30;13.52;;;6.25;;
11488;SDS011;5801;50.804;12.638;2024-01-10T03:33:56;4.70;;;4.10;;
11488;SDS011;5801;50.804;12.638;2024-01-10T03:36:23;11.80;;;6.93;;
11488;SDS011;5801;50.804;12.638;2024-01-10T03:38:49;11.02;;;9.13;;
11488;SDS011;5801;50.804;12.638;2024-01-10T03:41:19;8.73;;;4.97;;
11488;SDS011;5801;50.804;12.638;2024-01-10T03:43:45;7.47;;;6.30;;
11488;SDS011;5801;50.804;12.638;2024-01-10T03:46:12;16.52;;;7.95;;
11488;SDS011;5801;50.804;12.638;2024-01-10T03:48:39;14.38;;;8.52;;
11488;SDS011;5801;50.804;12.638;2024-01-10T03:51:12;10.32;;;6.30;;
11488;SDS011;5801;50.804;12.638;2024-01-10T03:53:39;12.45;;;7.55;;
11488;SDS011;5801;50.804;12.638;2024-01-10T03:56:06;7.38;;;6.22;;
11488;SDS011;5801;50.804;12.638;2024-01-10T03:58:32;9.95;;;6.72;;
11488;SDS011;5801;50.804;12.638;2024-01-10T04:00:59;7.20;;;6.47;;
11488;SDS011;5801;50.804;12.638;2024-01-10T04:03:28;11.60;;;5.68;;
11488;SDS011;5801;50.804;12.638;2024-01-10T04:05:54;16.85;;;10.55;;
11488;SDS011;5801;50.804;12.638;2024-01-10T04:08:20;12.00;;;7.13;;
11488;SDS011;5801;50.804;12.638;2024-01-10T04:10:46;7.35;;;6.55;;
11488;SDS011;5801;50.804;12.638;2024-01-10T04:13:12;9.73;;;6.07;;
11488;SDS011;5801;50.804;12.638;2024-01-10T04:15:38;11.10;;;8.23;;
11488;SDS011;5801;50.804;12.638;2024-01-10T04:18:04;14.18;;;8.50;;
11488;SDS011;5801;50.804;12.638;2024-01-10T04:20:31;6.57;;;5.80;;
11488;SDS011;5801;50.804;12.638;2024-01-10T04:22:57;8.55;;;7.60;;
11488;SDS011;5801;50.804;12.638;2024-01-10T04:25:23;18.25;;;7.30;;
11488;SDS011;5801;50.804;12.638;2024-01-10T04:27:49;11.20;;;4.78;;
11488;SDS011;5801;50.804;12.638;2024-01-10T04:30:15;21.05;;;8.52;;
11488;SDS011;5801;50.804;12.638;2024-01-10T04:32:42;10.20;;;5.53;;
11488;SDS011;5801;50.804;12.638;2024-01-10T04:35:08;11.23;;;6.82;;
11488;SDS011;5801;50.804;12.638;2024-01-10T04:37:34;10.63;;;5.30;;
11488;SDS011;5801;50.804;12.638;2024-01-10T04:40:00;8.50;;;7.30;;
11488;SDS011;5801;50.804;12.638;2024-01-10T04:42:26;9.30;;;7.32;;
11488;SDS011;5801;50.804;12.638;2024-01-10T04:44:52;17.38;;;8.18;;
11488;SDS011;5801;50.804;12.638;2024-01-10T04:47:18;13.98;;;8.90;;
11488;SDS011;5801;50.804;12.638;2024-01-10T04:49:45;31.08;;;7.50;;
11488;SDS011;5801;50.804;12.638;2024-01-10T04:52:11;15.75;;;7.50;;
11488;SDS011;5801;50.804;12.638;2024-01-10T04:54:37;18.33;;;8.85;;
11488;SDS011;5801;50.804;12.638;2024-01-10T04:57:03;33.70;;;10.35;;
11488;SDS011;5801;50.804;12.638;2024-01-10T04:59:30;12.05;;;6.45;;
11488;SDS011;5801;50.804;12.638;2024-01-10T05:01:56;9.10;;;7.03;;
11488;SDS011;5801;50.804;12.638;2024-01-10T05:04:22;12.75;;;8.60;;
11488;SDS011;5801;50.804;12.638;2024-01-10T05:06:48;10.30;;;5.53;;
11488;SDS011;5801;50.804;12.638;2024-01-10T05:09:14;9.27;;;6.85;;
11488;SDS011;5801;50.804;12.638;2024-01-10T05:11:40;11.30;;;7.22;;
11488;SDS011;5801;50.804;12.638;2024-01-10T05:14:06;9.30;;;5.47;;
11488;SDS011;5801;50.804;12.638;2024-01-10T05:16:32;13.32;;;7.72;;
11488;SDS011;5801;50.804;12.638;2024-01-10T05:19:00;14.38;;;10.13;;
11488;SDS011;5801;50.804;12.638;2024-01-10T05:21:30;7.40;;;5.30;;
11488;SDS011;5801;50.804;12.638;2024-01-10T05:23:57;25.92;;;4.70;;
11488;SDS011;5801;50.804;12.638;2024-01-10T05:26:23;17.77;;;8.35;;
11488;SDS011;5801;50.804;12.638;2024-01-10T05:28:49;18.67;;;9.57;;
11488;SDS011;5801;50.804;12.638;2024-01-10T05:31:15;8.18;;;7.35;;
11488;SDS011;5801;50.804;12.638;2024-01-10T05:33:41;7.95;;;6.30;;
11488;SDS011;5801;50.804;12.638;2024-01-10T05:36:08;7.35;;;4.70;;
11488;SDS011;5801;50.804;12.638;2024-01-10T05:38:37;8.57;;;6.07;;
11488;SDS011;5801;50.804;12.638;2024-01-10T05:41:05;18.60;;;10.02;;
11488;SDS011;5801;50.804;12.638;2024-01-10T05:43:31;5.80;;;4.80;;
11488;SDS011;5801;50.804;12.638;2024-01-10T05:45:57;14.23;;;7.05;;
11488;SDS011;5801;50.804;12.638;2024-01-10T05:48:24;6.60;;;5.95;;
11488;SDS011;5801;50.804;12.638;2024-01-10T05:50:50;13.40;;;6.90;;
11488;SDS011;5801;50.804;12.638;2024-01-10T05:53:16;9.00;;;6.15;;
11488;SDS011;5801;50.804;12.638;2024-01-10T05:55:43;8.02;;;6.25;;
11488;SDS011;5801;50.804;12.638;2024-01-10T05:58:09;7.75;;;5.60;;
11488;SDS011;5801;50.804;12.638;2024-01-10T06:00:35;8.05;;;7.15;;
11488;SDS011;5801;50.804;12.638;2024-01-10T06:03:02;11.60;;;5.05;;
11488;SDS011;5801;50.804;12.638;2024-01-10T06:05:28;14.18;;;6.55;;
11488;SDS011;5801;50.804;12.638;2024-01-10T06:07:56;7.85;;;5.90;;
11488;SDS011;5801;50.804;12.638;2024-01-10T06:10:22;11.45;;;6.20;;
11488;SDS011;5801;50.804;12.638;2024-01-10T06:12:48;9.20;;;7.18;;
11488;SDS011;5801;50.804;12.638;2024-01-10T06:15:14;11.27;;;7.72;;
11488;SDS011;5801;50.804;12.638;2024-01-10T06:17:40;15.23;;;8.85;;
11488;SDS011;5801;50.804;12.638;2024-01-10T06:20:07;10.73;;;7.50;;
11488;SDS011;5801;50.804;12.638;2024-01-10T06:22:34;13.63;;;6.90;;
11488;SDS011;5801;50.804;12.638;2024-01-10T06:25:00;8.63;;;7.72;;
11488;SDS011;5801;50.804;12.638;2024-01-10T06:27:26;18.75;;;12.32;;
11488;SDS011;5801;50.804;12.638;2024-01-10T06:29:52;11.52;;;5.85;;
11488;SDS011;5801;50.804;12.638;2024-01-10T06:32:19;5.10;;;4.72;;
11488;SDS011;5801;50.804;12.638;2024-01-10T06:34:45;10.13;;;4.93;;
11488;SDS011;5801;50.804;12.638;2024-01-10T06:37:11;9.35;;;7.88;;
11488;SDS011;5801;50.804;12.638;2024-01-10T06:39:37;18.80;;;9.85;;
11488;SDS011;5801;50.804;12.638;2024-01-10T06:42:03;17.25;;;8.07;;
11488;SDS011;5801;50.804;12.638;2024-01-10T06:44:31;13.82;;;5.78;;
11488;SDS011;5801;50.804;12.638;2024-01-10T06:46:57;16.38;;;6.57;;
11488;SDS011;5801;50.804;12.638;2024-01-10T06:49:23;13.45;;;7.53;;
11488;SDS011;5801;50.804;12.638;2024-01-10T06:51:49;5.22;;;4.75;;
11488;SDS011;5801;50.804;12.638;2024-01-10T06:54:15;7.97;;;6.70;;
11488;SDS011;5801;50.804;12.638;2024-01-10T06:56:43;7.60;;;6.30;;
11488;SDS011;5801;50.804;12.638;2024-01-10T06:59:09;7.03;;;4.38;;
11488;SDS011;5801;50.804;12.638;2024-01-10T07:01:35;8.73;;;6.05;;
11488;SDS011;5801;50.804;12.638;2024-01-10T07:04:02;15.25;;;10.15;;
11488;SDS011;5801;50.804;12.638;2024-01-10T07:06:29;14.50;;;7.95;;
11488;SDS011;5801;50.804;12.638;2024-01-10T07:08:55;4.43;;;4.07;;
11488;SDS011;5801;50.804;12.638;2024-01-10T07:11:23;11.60;;;6.13;;
11488;SDS011;5801;50.804;12.638;2024-01-10T07:13:49;7.78;;;4.93;;
11488;SDS011;5801;50.804;12.638;2024-01-10T07:16:15;14.85;;;6.40;;
11488;SDS011;5801;50.804;12.638;2024-01-10T07:18:42;20.55;;;6.32;;
11488;SDS011;5801;50.804;12.638;2024-01-10T07:21:08;8.13;;;7.10;;
11488;SDS011;5801;50.804;12.638;2024-01-10T07:23:35;9.48;;;7.70;;
11488;SDS011;5801;50.804;12.638;2024-01-10T07:26:05;12.13;;;7.22;;
11488;SDS011;5801;50.804;12.638;2024-01-10T07:28:31;14.30;;;7.47;;
11488;SDS011;5801;50.804;12.638;2024-01-10T07:30:57;12.10;;;7.68;;
11488;SDS011;5801;50.804;12.638;2024-01-10T07:33:27;7.60;;;6.05;;
11488;SDS011;5801;50.804;12.638;2024-01-10T07:35:55;5.85;;;5.25;;
11488;SDS011;5801;50.804;12.638;2024-01-10T07:38:22;19.17;;;5.88;;
11488;SDS011;5801;50.804;12.638;2024-01-10T07:40:48;13.63;;;7.03;;
11488;SDS011;5801;50.804;12.638;2024-01-10T07:43:14;23.75;;;9.00;;
11488;SDS011;5801;50.804;12.638;2024-01-10T07:45:40;16.48;;;6.75;;
11488;SDS011;5801;50.804;12.638;2024-01-10T07:48:06;12.40;;;7.20;;
11488;SDS011;5801;50.804;12.638;2024-01-10T07:50:32;7.05;;;6.32;;
11488;SDS011;5801;50.804;12.638;2024-01-10T07:52:59;8.25;;;5.70;;
11488;SDS011;5801;50.804;12.638;2024-01-10T07:55:26;11.63;;;5.78;;
11488;SDS011;5801;50.804;12.638;2024-01-10T07:57:54;13.85;;;6.20;;
11488;SDS011;5801;50.804;12.638;2024-01-10T08:00:20;9.18;;;7.78;;
11488;SDS011;5801;50.804;12.638;2024-01-10T08:02:47;11.80;;;6.65;;
11488;SDS011;5801;50.804;12.638;2024-01-10T08:05:15;6.75;;;5.82;;
11488;SDS011;5801;50.804;12.638;2024-01-10T08:07:41;10.07;;;5.40;;
11488;SDS011;5801;50.804;12.638;2024-01-10T08:10:07;7.25;;;4.90;;
11488;SDS011;5801;50.804;12.638;2024-01-10T08:12:37;5.28;;;4.20;;
11488;SDS011;5801;50.804;12.638;2024-01-10T08:15:04;8.43;;;6.93;;
11488;SDS011;5801;50.804;12.638;2024-01-10T08:17:31;6.45;;;5.38;;
11488;SDS011;5801;50.804;12.638;2024-01-10T08:19:58;9.85;;;6.38;;
11488;SDS011;5801;50.804;12.638;2024-01-10T08:22:25;24.40;;;6.88;;
11488;SDS011;5801;50.804;12.638;2024-01-10T08:24:51;9.73;;;5.38;;
11488;SDS011;5801;50.804;12.638;2024-01-10T08:27:17;12.63;;;7.93;;
11488;SDS011;5801;50.804;12.638;2024-01-10T08:29:43;24.45;;;9.45;;
11488;SDS011;5801;50.804;12.638;2024-01-10T08:32:09;21.55;;;10.30;;
11488;SDS011;5801;50.804;12.638;2024-01-10T08:34:35;12.85;;;7.63;;
11488;SDS011;5801;50.804;12.638;2024-01-10T08:37:02;12.57;;;6.28;;
11488;SDS011;5801;50.804;12.638;2024-01-10T08:39:28;21.15;;;9.95;;
11488;SDS011;5801;50.804;12.638;2024-01-10T08:41:55;24.77;;;11.07;;
11488;SDS011;5801;50.804;12.638;2024-01-10T08:44:22;29.02;;;12.00;;
11488;SDS011;5801;50.804;12.638;2024-01-10T08:46:47;51.67;;;15.30;;
11488;SDS011;5801;50.804;12.638;2024-01-10T08:49:16;33.13;;;14.10;;
11488;SDS011;5801;50.804;12.638;2024-01-10T08:51:41;32.60;;;14.52;;
11488;SDS011;5801;50.804;12.638;2024-01-10T08:54:08;36.65;;;14.25;;
11488;SDS011;5801;50.804;12.638;2024-01-10T08:56:37;42.15;;;16.67;;
11488;SDS011;5801;50.804;12.638;2024-01-10T08:59:03;41.50;;;16.77;;
11488;SDS011;5801;50.804;12.638;2024-01-10T09:01:29;40.75;;;17.25;;
11488;SDS011;5801;50.804;12.638;2024-01-10T09:03:55;39.00;;;16.60;;
11488;SDS011;5801;50.804;12.638;2024-01-10T09:06:21;41.00;;;17.50;;
11488;SDS011;5801;50.804;12.638;2024-01-10T09:08:47;39.90;;;17.70;;
11488;SDS011;5801;50.804;12.638;2024-01-10T09:11:13;47.47;;;19.52;;
11488;SDS011;5801;50.804;12.638;2024-01-10T09:13:39;35.72;;;18.13;;
11488;SDS011;5801;50.804;12.638;2024-01-10T09:16:05;47.80;;;19.65;;
11488;SDS011;5801;50.804;12.638;2024-01-10T09:18:31;43.25;;;19.25;;
11488;SDS011;5801;50.804;12.638;2024-01-10T09:20:57;48.20;;;19.45;;
11488;SDS011;5801;50.804;12.638;2024-01-10T09:23:23;48.45;;;20.88;;
11488;SDS011;5801;50.804;12.638;2024-01-10T09:25:49;51.97;;;20.30;;
11488;SDS011;5801;50.804;12.638;2024-01-10T09:28:15;48.45;;;22.23;;
11488;SDS011;5801;50.804;12.638;2024-01-10T09:30:41;40.80;;;19.17;;
11488;SDS011;5801;50.804;12.638;2024-01-10T09:33:07;47.13;;;19.52;;
11488;SDS011;5801;50.804;12.638;2024-01-10T09:35:33;53.25;;;21.90;;
11488;SDS011;5801;50.804;12.638;2024-01-10T09:37:59;46.05;;;21.27;;
11488;SDS011;5801;50.804;12.638;2024-01-10T09:40:25;45.15;;;20.90;;
11488;SDS011;5801;50.804;12.638;2024-01-10T09:42:54;44.58;;;21.42;;
11488;SDS011;5801;50.804;12.638;2024-01-10T09:45:20;51.83;;;24.98;;
11488;SDS011;5801;50.804;12.638;2024-01-10T09:47:48;59.50;;;25.27;;
11488;SDS011;5801;50.804;12.638;2024-01-10T09:50:17;54.47;;;25.10;;
11488;SDS011;5801;50.804;12.638;2024-01-10T09:52:50;60.80;;;24.38;;
11488;SDS011;5801;50.804;12.638;2024-01-10T09:55:23;53.78;;;24.85;;
11488;SDS011;5801;50.804;12.638;2024-01-10T09:57:52;51.33;;;22.38;;
11488;SDS011;5801;50.804;12.638;2024-01-10T10:00:17;49.88;;;22.33;;
11488;SDS011;5801;50.804;12.638;2024-01-10T10:02:45;45.67;;;21.00;;
11488;SDS011;5801;50.804;12.638;2024-01-10T10:05:14;107.45;;;33.50;;
11488;SDS011;5801;50.804;12.638;2024-01-10T10:07:48;46.25;;;21.45;;
11488;SDS011;5801;50.804;12.638;2024-01-10T10:10:16;80.63;;;30.52;;
11488;SDS011;5801;50.804;12.638;2024-01-10T10:12:46;55.45;;;24.08;;
11488;SDS011;5801;50.804;12.638;2024-01-10T10:15:18;51.58;;;23.10;;
11488;SDS011;5801;50.804;12.638;2024-01-10T10:17:46;79.28;;;27.20;;
11488;SDS011;5801;50.804;12.638;2024-01-10T10:20:30;58.88;;;24.67;;
11488;SDS011;5801;50.804;12.638;2024-01-10T10:23:02;54.95;;;21.17;;
11488;SDS011;5801;50.804;12.638;2024-01-10T10:25:36;53.20;;;22.48;;
11488;SDS011;5801;50.804;12.638;2024-01-10T10:28:07;53.85;;;24.52;;
11488;SDS011;5801;50.804;12.638;2024-01-10T10:30:33;48.53;;;20.98;;
11488;SDS011;5801;50.804;12.638;2024-01-10T10:32:59;50.65;;;20.58;;
11488;SDS011;5801;50.804;12.638;2024-01-10T10:35:28;50.53;;;21.95;;
11488;SDS011;5801;50.804;12.638;2024-01-10T10:37:54;43.63;;;21.33;;
11488;SDS011;5801;50.804;12.638;2024-01-10T10:40:21;51.50;;;21.48;;
11488;SDS011;5801;50.804;12.638;2024-01-10T10:42:48;49.45;;;23.20;;
11488;SDS011;5801;50.804;12.638;2024-01-10T10:45:21;50.88;;;22.40;;
11488;SDS011;5801;50.804;12.638;2024-01-10T10:47:56;49.25;;;22.25;;
11488;SDS011;5801;50.804;12.638;2024-01-10T10:50:24;47.33;;;21.13;;
11488;SDS011;5801;50.804;12.638;2024-01-10T10:52:53;44.38;;;22.20;;
11488;SDS011;5801;50.804;12.638;2024-01-10T10:55:21;49.47;;;23.08;;
11488;SDS011;5801;50.804;12.638;2024-01-10T10:57:49;46.30;;;22.67;;
11488;SDS011;5801;50.804;12.638;2024-01-10T11:00:19;53.55;;;22.88;;
11488;SDS011;5801;50.804;12.638;2024-01-10T11:02:52;41.85;;;20.50;;
11488;SDS011;5801;50.804;12.638;2024-01-10T11:05:19;44.30;;;21.40;;
11488;SDS011;5801;50.804;12.638;2024-01-10T11:07:46;45.00;;;22.17;;
11488;SDS011;5801;50.804;12.638;2024-01-10T11:10:21;44.53;;;20.40;;
11488;SDS011;5801;50.804;12.638;2024-01-10T11:15:54;46.00;;;20.35;;
11488;SDS011;5801;50.804;12.638;2024-01-10T11:23:50;43.97;;;20.48;;
11488;SDS011;5801;50.804;12.638;2024-01-10T11:26:19;43.65;;;20.48;;
11488;SDS011;5801;50.804;12.638;2024-01-10T11:28:45;38.15;;;18.75;;
11488;SDS011;5801;50.804;12.638;2024-01-10T11:31:12;45.17;;;21.10;;
11488;SDS011;5801;50.804;12.638;2024-01-10T11:33:40;46.95;;;21.33;;
11488;SDS011;5801;50.804;12.638;2024-01-10T11:38:53;45.47;;;20.65;;
11488;SDS011;5801;50.804;12.638;2024-01-10T11:49:12;41.70;;;19.80;;
11488;SDS011;5801;50.804;12.638;2024-01-10T11:51:53;38.22;;;19.30;;
11488;SDS011;5801;50.804;12.638;2024-01-10T11:57:22;47.83;;;20.08;;
11488;SDS011;5801;50.804;12.638;2024-01-10T11:59:53;40.90;;;19.33;;
11488;SDS011;5801;50.804;12.638;2024-01-10T12:02:20;39.25;;;18.20;;
11488;SDS011;5801;50.804;12.638;2024-01-10T12:04:47;42.83;;;21.08;;
11488;SDS011;5801;50.804;12.638;2024-01-10T12:07:13;42.67;;;18.52;;
11488;SDS011;5801;50.804;12.638;2024-01-10T12:09:41;36.03;;;17.30;;
11488;SDS011;5801;50.804;12.638;2024-01-10T12:12:07;37.95;;;16.95;;
11488;SDS011;5801;50.804;12.638;2024-01-10T12:14:33;33.20;;;16.90;;
11488;SDS011;5801;50.804;12.638;2024-01-10T12:17:00;45.47;;;18.95;;
11488;SDS011;5801;50.804;12.638;2024-01-10T12:19:27;41.33;;;19.90;;
11488;SDS011;5801;50.804;12.638;2024-01-10T12:21:53;39.63;;;19.95;;
11488;SDS011;5801;50.804;12.638;2024-01-10T12:24:19;44.53;;;19.35;;
11488;SDS011;5801;50.804;12.638;2024-01-10T12:26:46;41.72;;;18.48;;
11488;SDS011;5801;50.804;12.638;2024-01-10T12:29:13;43.30;;;20.73;;
11488;SDS011;5801;50.804;12.638;2024-01-10T12:31:42;44.50;;;20.00;;
11488;SDS011;5801;50.804;12.638;2024-01-10T12:34:10;41.22;;;19.38;;
11488;SDS011;5801;50.804;12.638;2024-01-10T12:36:36;40.67;;;18.83;;
11488;SDS011;5801;50.804;12.638;2024-01-10T12:39:03;35.47;;;17.02;;
11488;SDS011;5801;50.804;12.638;2024-01-10T12:41:32;40.22;;;17.60;;
11488;SDS011;5801;50.804;12.638;2024-01-10T12:43:59;54.58;;;19.38;;
11488;SDS011;5801;50.804;12.638;2024-01-10T12:46:28;51.65;;;20.27;;
11488;SDS011;5801;50.804;12.638;2024-01-10T12:48:59;36.80;;;18.23;;
11488;SDS011;5801;50.804;12.638;2024-01-10T12:51:26;37.65;;;17.55;;
11488;SDS011;5801;50.804;12.638;2024-01-10T12:53:54;39.55;;;17.60;;
11488;SDS011;5801;50.804;12.638;2024-01-10T12:56:21;40.63;;;17.30;;
11488;SDS011;5801;50.804;12.638;2024-01-10T12:58:47;40.42;;;17.55;;
11488;SDS011;5801;50.804;12.638;2024-01-10T13:01:13;31.55;;;15.50;;
11488;SDS011;5801;50.804;12.638;2024-01-10T13:03:39;43.13;;;18.25;;
11488;SDS011;5801;50.804;12.638;2024-01-10T13:06:05;45.65;;;17.67;;
11488;SDS011;5801;50.804;12.638;2024-01-10T13:08:31;41.53;;;15.13;;
11488;SDS011;5801;50.804;12.638;2024-01-10T13:10:57;31.90;;;15.48;;
11488;SDS011;5801;50.804;12.638;2024-01-10T13:13:24;29.23;;;15.18;;
11488;SDS011;5801;50.804;12.638;2024-01-10T13:15:51;36.25;;;14.05;;
11488;SDS011;5801;50.804;12.638;2024-01-10T13:18:17;33.30;;;15.35;;
11488;SDS011;5801;50.804;12.638;2024-01-10T13:20:43;29.30;;;15.13;;
11488;SDS011;5801;50.804;12.638;2024-01-10T13:23:10;33.28;;;15.55;;
11488;SDS011;5801;50.804;12.638;2024-01-10T13:25:36;34.08;;;15.20;;
11488;SDS011;5801;50.804;12.638;2024-01-10T13:28:05;31.75;;;14.35;;
11488;SDS011;5801;50.804;12.638;2024-01-10T13:30:31;26.90;;;13.70;;
11488;SDS011;5801;50.804;12.638;2024-01-10T13:32:57;34.08;;;14.70;;
11488;SDS011;5801;50.804;12.638;2024-01-10T13:35:23;28.35;;;13.88;;
11488;SDS011;5801;50.804;12.638;2024-01-10T13:37:49;26.77;;;12.13;;
11488;SDS011;5801;50.804;12.638;2024-01-10T13:40:16;31.35;;;13.02;;
11488;SDS011;5801;50.804;12.638;2024-01-10T13:42:42;34.97;;;14.27;;
11488;SDS011;5801;50.804;12.638;2024-01-10T13:45:08;26.60;;;10.93;;
11488;SDS011;5801;50.804;12.638;2024-01-10T13:47:41;25.08;;;11.80;;
11488;SDS011;5801;50.804;12.638;2024-01-10T13:50:07;34.40;;;14.10;;
11488;SDS011;5801;50.804;12.638;2024-01-10T13:52:36;29.52;;;13.20;;
11488;SDS011;5801;50.804;12.638;2024-01-10T13:55:03;22.92;;;12.65;;
11488;SDS011;5801;50.804;12.638;2024-01-10T13:57:31;28.38;;;13.25;;
11488;SDS011;5801;50.804;12.638;2024-01-10T13:59:58;27.75;;;11.90;;
11488;SDS011;5801;50.804;12.638;2024-01-10T14:02:24;29.23;;;12.30;;
11488;SDS011;5801;50.804;12.638;2024-01-10T14:04:51;27.77;;;13.63;;
11488;SDS011;5801;50.804;12.638;2024-01-10T14:07:19;27.48;;;11.52;;
11488;SDS011;5801;50.804;12.638;2024-01-10T14:09:45;24.00;;;11.75;;
11488;SDS011;5801;50.804;12.638;2024-01-10T14:12:12;22.95;;;12.32;;
11488;SDS011;5801;50.804;12.638;2024-01-10T14:14:38;37.10;;;16.80;;
11488;SDS011;5801;50.804;12.638;2024-01-10T14:17:05;47.38;;;20.33;;
11488;SDS011;5801;50.804;12.638;2024-01-10T14:19:31;57.22;;;18.98;;
11488;SDS011;5801;50.804;12.638;2024-01-10T14:21:57;30.23;;;12.52;;
11488;SDS011;5801;50.804;12.638;2024-01-10T14:24:24;30.83;;;12.73;;
11488;SDS011;5801;50.804;12.638;2024-01-10T14:26:50;33.78;;;14.02;;
11488;SDS011;5801;50.804;12.638;2024-01-10T14:29:16;25.80;;;13.82;;
11488;SDS011;5801;50.804;12.638;2024-01-10T14:31:42;27.00;;;12.98;;
11488;SDS011;5801;50.804;12.638;2024-01-10T14:34:08;24.08;;;10.00;;
11488;SDS011;5801;50.804;12.638;2024-01-10T14:36:34;25.30;;;11.63;;
11488;SDS011;5801;50.804;12.638;2024-01-10T14:39:02;18.92;;;11.45;;
11488;SDS011;5801;50.804;12.638;2024-01-10T14:41:32;25.58;;;11.18;;
11488;SDS011;5801;50.804;12.638;2024-01-10T14:43:59;28.33;;;11.48;;
11488;SDS011;5801;50.804;12.638;2024-01-10T14:46:25;30.67;;;13.48;;
11488;SDS011;5801;50.804;12.638;2024-01-10T14:48:53;21.92;;;11.52;;
11488;SDS011;5801;50.804;12.638;2024-01-10T14:51:19;24.45;;;11.05;;
11488;SDS011;5801;50.804;12.638;2024-01-10T14:53:45;25.40;;;11.10;;